Bowdoin, Maine
Current Conditions -  °F | °C
As of 5:15 AM on Thursday 23 Oct 2014 (Local Time) from KLEW Reporting Station
Overcast Overcast  
Wind Chill: 39°   Ceiling: 700
Heat Index: 46°   Visibility: 3mi
Dew Point: 43°   Wind: 22mph
Humidity: 87%   Direction: 30°NNE
Pressure: 29.89"   Gusts: 28mph
Location:  44.05°N, 70.02°W
Report Text: KLEW 230915Z AUTO 03019G24KT 3SM OVC007 08/06 A2989 RMK AO1
Loading
Personal Weather Stations






























Interactive Weather Map
Tropical Storm Tracking
New forecast layout! Learn more

10-Day Weather Forecast

Advertisements
Track Severe Weather on mobile